Time;durP1;ratioP1;P1;durP2;ratioP2;P2;SDS_P1;SDS_P2;PMS_P1;PMS_P2;Temp;Humidity;BMP_temperature;BMP_pressure;BME280_temperature;BME280_humidity;BME280_pressure;Samples;Min_cycle;Max_cycle;Signal;HPM_P1;HPM_P2
2022/10/21 00:00:25;;;;;;;8.47;4.77;;;16.40;99.90;;;;;;5079423;28;20704;-59
2022/10/21 00:02:54;;;;;;;8.43;4.80;;;16.40;99.90;;;;;;5087579;28;20803;-59
2022/10/21 00:05:23;;;;;;;11.07;4.80;;;16.30;99.90;;;;;;5089354;28;20227;-58
2022/10/21 00:08:44;;;;;;;7.40;4.50;;;16.30;99.90;;;;;;5094214;28;20379;-58
2022/10/21 00:11:13;;;;;;;9.63;3.97;;;16.30;99.90;;;;;;5079114;28;20202;-58
2022/10/21 00:13:41;;;;;;;5.70;4.20;;;16.20;99.90;;;;;;5073707;28;20207;-57
2022/10/21 00:16:49;;;;;;;9.60;3.60;;;16.20;99.90;;;;;;5075162;28;20292;-58
2022/10/21 00:19:19;;;;;;;5.60;3.90;;;16.20;99.90;;;;;;5079388;28;20201;-58
2022/10/21 00:21:47;;;;;;;5.33;3.70;;;16.20;99.90;;;;;;5088743;28;20256;-57
2022/10/21 00:24:16;;;;;;;4.30;3.63;;;16.10;99.90;;;;;;5074058;28;20288;-57
2022/10/21 00:26:44;;;;;;;6.67;3.43;;;16.10;99.90;;;;;;5074301;28;20217;-58
2022/10/21 00:33:22;;;;;;;4.50;3.47;;;16.10;99.90;;;;;;5085705;28;20206;-57
2022/10/21 00:36:41;;;;;;;5.03;3.40;;;16.10;99.90;;;;;;5087779;28;20201;-57
2022/10/21 00:39:11;;;;;;;6.53;3.60;;;16.00;99.90;;;;;;5093790;28;20211;-58
2022/10/21 00:45:28;;;;;;;11.00;3.30;;;15.90;99.90;;;;;;5089554;28;20685;-58
2022/10/21 00:48:06;;;;;;;6.10;2.83;;;15.80;99.90;;;;;;5085708;28;20200;-57
2022/10/21 00:50:38;;;;;;;7.83;3.20;;;15.80;99.90;;;;;;5093825;28;20282;-57
2022/10/21 00:53:12;;;;;;;5.40;3.00;;;15.80;99.90;;;;;;5094165;28;20543;-57
2022/10/21 00:55:49;;;;;;;6.50;2.67;;;15.70;99.90;;;;;;5091416;28;20611;-57
2022/10/21 00:58:20;;;;;;;6.77;2.87;;;15.70;99.90;;;;;;5093650;28;20199;-57
2022/10/21 01:00:49;;;;;;;5.10;2.63;;;15.70;99.90;;;;;;5092861;28;20319;-57
2022/10/21 01:03:19;;;;;;;7.50;3.27;;;15.60;99.90;;;;;;5093914;28;20196;-57
2022/10/21 01:06:26;;;;;;;2.47;2.27;;;15.60;99.90;;;;;;5092930;28;20227;-57
2022/10/21 01:08:56;;;;;;;4.40;2.20;;;15.60;99.90;;;;;;5073519;28;20220;-57
2022/10/21 01:15:01;;;;;;;7.23;2.60;;;15.40;99.90;;;;;;5076020;28;20220;-57
2022/10/21 01:17:46;;;;;;;2.73;2.50;;;15.40;99.90;;;;;;5093431;28;20605;-58
2022/10/21 01:20:53;;;;;;;3.93;2.10;;;15.40;99.90;;;;;;5073925;28;20225;-57
2022/10/21 01:23:56;;;;;;;2.47;2.00;;;15.40;99.90;;;;;;5084241;28;20195;-57
2022/10/21 01:26:50;;;;;;;4.60;2.17;;;15.30;99.90;;;;;;5093048;28;20654;-58
2022/10/21 01:29:37;;;;;;;3.50;2.00;;;15.30;99.90;;;;;;5090616;28;20224;-58
2022/10/21 01:32:43;;;;;;;6.27;2.40;;;15.20;99.90;;;;;;5094735;28;20205;-57
2022/10/21 01:35:22;;;;;;;7.47;2.10;;;15.20;99.90;;;;;;5085275;28;20211;-57
2022/10/21 01:38:00;;;;;;;3.23;2.20;;;15.10;99.90;;;;;;5097578;28;20620;-59
2022/10/21 01:40:34;;;;;;;4.47;2.30;;;15.10;99.90;;;;;;5103839;28;20243;-57
2022/10/21 01:43:13;;;;;;;2.93;2.43;;;15.10;99.90;;;;;;5095745;28;20230;-57
2022/10/21 01:45:46;;;;;;;5.90;2.27;;;15.00;99.90;;;;;;5097240;28;20191;-57
2022/10/21 01:48:19;;;;;;;8.83;2.60;;;15.00;99.90;;;;;;5086004;28;20269;-58
2022/10/21 01:50:53;;;;;;;5.67;2.67;;;14.90;99.90;;;;;;5077038;28;20311;-58
2022/10/21 01:53:26;;;;;;;3.13;2.20;;;14.80;99.90;;;;;;5080611;28;20203;-57
2022/10/21 01:55:56;;;;;;;4.30;1.90;;;14.80;99.90;;;;;;5077141;28;20223;-57
2022/10/21 01:58:27;;;;;;;2.70;2.27;;;14.80;99.90;;;;;;5088071;28;20190;-57
2022/10/21 02:00:59;;;;;;;5.67;2.50;;;14.70;99.90;;;;;;5101783;28;20270;-57
2022/10/21 02:03:31;;;;;;;8.07;2.07;;;14.70;99.90;;;;;;5089647;28;20200;-57
2022/10/21 02:06:41;;;;;;;3.20;2.50;;;14.70;99.90;;;;;;5096748;28;20231;-56
2022/10/21 02:09:12;;;;;;;4.10;2.40;;;14.70;99.90;;;;;;5092915;28;20200;-58
2022/10/21 02:12:19;;;;;;;2.93;2.13;;;14.60;99.90;;;;;;5096788;28;20558;-57
2022/10/21 02:14:53;;;;;;;2.97;2.33;;;14.50;99.90;;;;;;5092395;28;20215;-57
2022/10/21 02:17:23;;;;;;;2.60;2.40;;;14.50;99.90;;;;;;5096662;28;20278;-57
2022/10/21 02:19:51;;;;;;;8.07;2.10;;;14.40;99.90;;;;;;5096292;28;20228;-57
2022/10/21 02:22:21;;;;;;;4.77;2.33;;;14.40;99.90;;;;;;5086471;28;20200;-57
2022/10/21 02:24:54;;;;;;;6.90;2.50;;;14.30;99.90;;;;;;5076483;28;20695;-57
2022/10/21 02:27:23;;;;;;;2.70;2.50;;;14.40;99.90;;;;;;5084555;28;20235;-57
2022/10/21 02:29:55;;;;;;;7.00;2.50;;;14.30;99.90;;;;;;5089605;28;20219;-57
2022/10/21 02:32:34;;;;;;;6.43;2.57;;;14.20;99.90;;;;;;5096320;28;20680;-57
2022/10/21 02:35:23;;;;;;;4.47;2.50;;;14.20;99.90;;;;;;5096408;28;20906;-57
2022/10/21 02:37:58;;;;;;;5.40;2.27;;;14.20;99.90;;;;;;5096348;28;20653;-57
2022/10/21 02:40:33;;;;;;;5.40;2.60;;;14.10;99.90;;;;;;5095802;28;20249;-57
2022/10/21 02:43:29;;;;;;;8.33;2.47;;;14.10;99.90;;;;;;5084201;28;20254;-57
2022/10/21 02:46:01;;;;;;;6.27;2.70;;;14.10;99.90;;;;;;5075887;28;20192;-57
2022/10/21 02:48:35;;;;;;;5.80;2.37;;;14.00;99.90;;;;;;5083950;28;20195;-57
2022/10/21 02:51:05;;;;;;;7.43;2.50;;;14.00;99.90;;;;;;5096223;28;20272;-57
2022/10/21 02:53:57;;;;;;;4.17;2.47;;;13.90;99.90;;;;;;5096151;28;20226;-57
2022/10/21 02:56:28;;;;;;;2.73;2.53;;;13.90;99.90;;;;;;5094001;28;20203;-57
2022/10/21 02:59:01;;;;;;;4.70;2.43;;;13.90;99.90;;;;;;5079194;28;20227;-57
2022/10/21 03:01:29;;;;;;;5.87;2.60;;;13.90;99.90;;;;;;5082785;28;20221;-56
2022/10/21 03:03:57;;;;;;;4.80;2.20;;;13.90;99.90;;;;;;5095726;28;20203;-57
2022/10/21 03:06:26;;;;;;;6.00;2.50;;;13.90;99.90;;;;;;5095827;28;20622;-56
2022/10/21 03:08:54;;;;;;;3.47;2.50;;;13.90;99.90;;;;;;5090376;28;20207;-57
2022/10/21 03:11:22;;;;;;;3.77;2.67;;;13.90;99.90;;;;;;5095768;28;20708;-57
2022/10/21 03:13:52;;;;;;;4.37;2.50;;;13.90;99.90;;;;;;5095306;28;20248;-57
2022/10/21 03:16:20;;;;;;;2.87;2.60;;;13.80;99.90;;;;;;5092355;28;20653;-57
2022/10/21 03:18:48;;;;;;;6.57;2.87;;;13.80;99.90;;;;;;5095614;28;20286;-57
2022/10/21 03:21:16;;;;;;;10.20;3.40;;;13.80;99.90;;;;;;5082438;28;20192;-58
2022/10/21 03:23:45;;;;;;;4.07;3.10;;;13.80;99.90;;;;;;5083105;28;20195;-57
2022/10/21 03:26:13;;;;;;;3.40;2.50;;;13.80;99.90;;;;;;5095781;28;20278;-57
2022/10/21 03:28:41;;;;;;;2.70;2.50;;;13.80;99.90;;;;;;5082935;28;20199;-57
2022/10/21 03:31:11;;;;;;;8.70;2.60;;;13.70;99.90;;;;;;5095419;28;20685;-56
2022/10/21 03:33:39;;;;;;;3.23;2.90;;;13.70;99.90;;;;;;5095230;28;20290;-57
2022/10/21 03:36:09;;;;;;;4.50;2.70;;;13.80;99.90;;;;;;5095012;28;20648;-57
2022/10/21 03:38:57;;;;;;;4.77;2.43;;;13.80;99.90;;;;;;5090167;28;20227;-57
2022/10/21 03:41:26;;;;;;;3.87;2.73;;;13.80;99.90;;;;;;5080061;28;20294;-57
2022/10/21 03:44:34;;;;;;;6.03;2.47;;;13.80;99.90;;;;;;5095109;28;20596;-57
2022/10/21 03:47:03;;;;;;;7.50;2.60;;;13.90;99.90;;;;;;5075059;28;20294;-57
2022/10/21 03:49:31;;;;;;;2.80;2.40;;;13.80;99.90;;;;;;5086177;28;20230;-57
2022/10/21 03:52:00;;;;;;;2.73;2.50;;;13.90;99.90;;;;;;5094781;28;20621;-57
2022/10/21 03:54:30;;;;;;;5.80;2.80;;;13.80;99.90;;;;;;5094671;28;20235;-57
2022/10/21 03:57:37;;;;;;;2.83;2.30;;;13.80;99.90;;;;;;5094207;28;20230;-56
2022/10/21 04:00:07;;;;;;;4.50;2.27;;;13.80;99.90;;;;;;5094747;28;20203;-57
2022/10/21 04:02:37;;;;;;;4.97;2.53;;;13.80;99.90;;;;;;5095003;28;20206;-57
2022/10/21 04:05:06;;;;;;;9.37;2.53;;;13.70;99.90;;;;;;5093814;28;20203;-57
2022/10/21 04:07:54;;;;;;;2.90;2.30;;;13.70;99.90;;;;;;5094866;28;20227;-57
2022/10/21 04:10:28;;;;;;;5.67;2.70;;;13.80;99.90;;;;;;5094357;28;20250;-57
2022/10/21 04:12:56;;;;;;;3.03;2.60;;;13.80;99.90;;;;;;5094643;28;20195;-57
2022/10/21 04:15:24;;;;;;;4.00;2.63;;;13.70;99.90;;;;;;5094439;28;20258;-57
2022/10/21 04:17:54;;;;;;;6.03;2.60;;;13.80;99.90;;;;;;5085050;28;20575;-57
2022/10/21 04:20:22;;;;;;;2.63;2.20;;;13.70;99.90;;;;;;5074027;28;20242;-57
2022/10/21 04:22:51;;;;;;;4.77;2.50;;;13.70;99.90;;;;;;5076360;28;20581;-58
2022/10/21 04:25:19;;;;;;;3.83;2.40;;;13.70;99.90;;;;;;5086913;28;20207;-58
2022/10/21 04:28:18;;;;;;;2.60;2.40;;;13.60;99.90;;;;;;5073171;28;20231;-58
2022/10/21 04:30:46;;;;;;;4.23;2.70;;;13.70;99.90;;;;;;5087172;28;20239;-57
2022/10/21 04:33:16;;;;;;;3.23;2.27;;;13.70;99.90;;;;;;5080012;28;20535;-58
2022/10/21 04:36:21;;;;;;;3.77;2.17;;;13.70;99.90;;;;;;5091795;28;20535;-58
2022/10/21 04:38:50;;;;;;;3.03;2.17;;;13.70;99.90;;;;;;5076648;28;20199;-58
2022/10/21 04:41:22;;;;;;;3.27;2.40;;;13.70;99.90;;;;;;5076926;28;20690;-58
2022/10/21 04:43:51;;;;;;;3.37;2.23;;;13.70;99.90;;;;;;5073764;28;20275;-58
2022/10/21 04:46:19;;;;;;;6.83;2.40;;;13.70;99.90;;;;;;5092879;28;20239;-58
2022/10/21 04:48:49;;;;;;;6.83;2.60;;;13.70;99.90;;;;;;5093969;28;20278;-58
2022/10/21 04:51:17;;;;;;;5.80;2.10;;;13.70;99.90;;;;;;5090296;28;20215;-58
2022/10/21 04:53:46;;;;;;;3.97;2.37;;;13.70;99.90;;;;;;5089473;28;20202;-58
2022/10/21 05:00:10;;;;;;;7.40;2.43;;;13.70;99.90;;;;;;5073392;28;20665;-58
2022/10/21 05:02:41;;;;;;;2.93;2.50;;;13.70;99.90;;;;;;5092648;28;20266;-58
2022/10/21 05:05:50;;;;;;;6.23;2.20;;;13.70;99.90;;;;;;5093663;28;20216;-58
2022/10/21 05:08:21;;;;;;;4.67;2.67;;;13.70;99.90;;;;;;5092124;28;20199;-58
2022/10/21 05:12:04;;;;;;;2.90;2.50;;;13.70;99.90;;;;;;5083695;28;20707;-58
2022/10/21 05:15:16;;;;;;;5.07;3.03;;;13.80;99.90;;;;;;5090526;28;20554;-58
2022/10/21 05:18:25;;;;;;;4.43;2.73;;;13.80;99.90;;;;;;5101890;28;20277;-57
2022/10/21 05:21:34;;;;;;;2.90;2.60;;;13.80;99.90;;;;;;5107838;28;20219;-58
2022/10/21 05:25:25;;;;;;;6.33;2.67;;;13.90;99.90;;;;;;5086184;28;20194;-58
2022/10/21 05:28:42;;;;;;;8.07;3.10;;;13.90;99.90;;;;;;5096090;28;20192;-57
2022/10/21 05:31:51;;;;;;;4.60;2.30;;;14.00;99.90;;;;;;5081553;28;20214;-57
2022/10/21 05:35:49;;;;;;;3.67;2.80;;;14.00;99.90;;;;;;5104364;28;20638;-58
2022/10/21 05:38:58;;;;;;;6.17;2.90;;;14.10;99.90;;;;;;5103361;28;20194;-58
2022/10/21 05:46:37;;;;;;;6.27;2.53;;;14.20;99.90;;;;;;5097257;28;20179;-57
2022/10/21 05:49:46;;;;;;;4.93;2.53;;;14.20;99.90;;;;;;5108516;28;20224;-57
2022/10/21 05:52:57;;;;;;;6.63;2.93;;;14.10;99.90;;;;;;5128027;28;20213;-57
2022/10/21 05:56:08;;;;;;;2.83;2.57;;;14.10;99.90;;;;;;5111026;28;20206;-58
2022/10/21 05:59:19;;;;;;;3.70;2.63;;;14.00;99.90;;;;;;5098787;28;20238;-57
2022/10/21 06:02:30;;;;;;;11.50;3.37;;;14.00;99.90;;;;;;5097415;28;20219;-57
2022/10/21 06:05:41;;;;;;;2.63;2.53;;;14.10;99.90;;;;;;5086373;28;20237;-58
2022/10/21 06:08:50;;;;;;;9.27;3.00;;;14.10;99.90;;;;;;5103343;28;20195;-58
2022/10/21 06:11:59;;;;;;;7.63;2.90;;;14.10;99.90;;;;;;5101528;28;20222;-57
2022/10/21 06:15:09;;;;;;;5.80;2.90;;;14.10;99.90;;;;;;5102378;28;20195;-58
2022/10/21 06:18:19;;;;;;;4.57;3.13;;;14.10;99.90;;;;;;5109738;28;20333;-57
2022/10/21 06:21:28;;;;;;;7.13;3.20;;;14.10;99.90;;;;;;5092821;28;20191;-57
2022/10/21 06:24:37;;;;;;;5.03;3.17;;;14.10;99.90;;;;;;5092520;28;20184;-57
2022/10/21 06:27:46;;;;;;;4.80;3.07;;;14.10;99.90;;;;;;5111594;27;20211;-58
2022/10/21 06:30:56;;;;;;;3.97;3.30;;;14.10;99.90;;;;;;5114766;27;20623;-57
2022/10/21 06:34:06;;;;;;;6.00;3.20;;;14.10;99.90;;;;;;5110113;28;20538;-57
2022/10/21 06:37:15;;;;;;;6.50;3.40;;;14.20;99.90;;;;;;5111100;28;20186;-59
2022/10/21 06:40:24;;;;;;;5.60;3.37;;;14.20;99.90;;;;;;5114053;28;20191;-57
2022/10/21 06:43:33;;;;;;;6.93;3.50;;;14.30;99.90;;;;;;5098620;28;20192;-57
2022/10/21 06:46:42;;;;;;;8.80;4.17;;;14.30;99.90;;;;;;5107176;28;20198;-57
2022/10/21 06:49:55;;;;;;;7.10;3.43;;;14.40;99.90;;;;;;5113400;28;20559;-58
2022/10/21 06:53:04;;;;;;;3.67;3.40;;;14.40;99.90;;;;;;5112933;28;20221;-57
2022/10/21 06:56:16;;;;;;;6.60;3.60;;;14.50;99.90;;;;;;5093148;28;20208;-57
2022/10/21 06:59:25;;;;;;;8.20;3.67;;;14.60;99.90;;;;;;5094591;28;20191;-57
2022/10/21 07:02:34;;;;;;;7.87;4.07;;;14.70;99.90;;;;;;5113972;27;20229;-57
2022/10/21 07:05:44;;;;;;;10.40;4.27;;;14.80;99.90;;;;;;5111095;28;20198;-57
2022/10/21 07:08:54;;;;;;;6.40;4.17;;;15.00;99.90;;;;;;5101304;28;20232;-57
2022/10/21 07:12:07;;;;;;;9.00;4.10;;;15.00;99.90;;;;;;5084353;28;20204;-57
2022/10/21 07:15:16;;;;;;;9.03;3.97;;;15.10;99.90;;;;;;5105559;28;20181;-58
2022/10/21 07:18:25;;;;;;;7.60;3.77;;;15.20;99.90;;;;;;5101616;28;20586;-57
2022/10/21 07:21:38;;;;;;;8.77;4.10;;;15.30;99.90;;;;;;5074013;28;20625;-57
2022/10/21 07:24:47;;;;;;;4.93;3.63;;;15.30;99.90;;;;;;5098237;28;20235;-57
2022/10/21 07:27:57;;;;;;;4.67;3.40;;;15.40;99.90;;;;;;5098457;28;20215;-57
2022/10/21 07:31:06;;;;;;;5.87;3.83;;;15.50;99.90;;;;;;5096197;28;20587;-58
2022/10/21 07:34:16;;;;;;;8.53;3.57;;;15.50;99.90;;;;;;5107242;28;20194;-57
2022/10/21 07:37:26;;;;;;;15.40;3.60;;;15.60;99.90;;;;;;5077328;28;20196;-57
2022/10/21 07:40:40;;;;;;;7.97;4.00;;;15.70;99.90;;;;;;5108059;28;20196;-57
2022/10/21 07:43:55;;;;;;;9.07;3.53;;;15.70;99.90;;;;;;5108457;28;20220;-58
2022/10/21 07:47:04;;;;;;;11.37;3.83;;;15.80;99.90;;;;;;5113531;27;20203;-57
2022/10/21 07:50:13;;;;;;;11.37;3.67;;;15.90;99.90;;;;;;5112240;28;20186;-57
2022/10/21 07:53:25;;;;;;;12.40;4.03;;;15.90;99.90;;;;;;5090511;28;20207;-57
2022/10/21 07:56:36;;;;;;;5.33;2.90;;;16.00;99.90;;;;;;5091662;28;20216;-58
2022/10/21 07:59:45;;;;;;;12.87;3.20;;;16.10;99.90;;;;;;5098204;28;20664;-57
2022/10/21 08:02:55;;;;;;;9.90;3.83;;;16.20;99.90;;;;;;5103620;28;20843;-58
2022/10/21 08:06:05;;;;;;;7.57;3.87;;;16.20;99.90;;;;;;5107332;28;20201;-57
2022/10/21 08:09:17;;;;;;;5.27;2.77;;;16.30;99.90;;;;;;5107396;28;20602;-57
2022/10/21 08:12:26;;;;;;;7.23;2.90;;;16.30;99.90;;;;;;5118310;27;20225;-57
2022/10/21 08:15:35;;;;;;;8.60;3.30;;;16.40;99.90;;;;;;5107024;28;20640;-56
2022/10/21 08:18:44;;;;;;;6.23;2.60;;;16.40;99.90;;;;;;5105008;27;20203;-56
2022/10/21 08:21:53;;;;;;;8.00;2.53;;;16.50;99.90;;;;;;5090929;28;20675;-57
2022/10/21 08:25:03;;;;;;;2.90;2.30;;;16.60;99.90;;;;;;5110205;28;20191;-57
2022/10/21 08:28:12;;;;;;;3.43;2.30;;;16.60;99.90;;;;;;5110511;28;20207;-57
2022/10/21 08:31:23;;;;;;;3.93;2.03;;;16.70;99.90;;;;;;5094662;28;20202;-58
2022/10/21 08:34:32;;;;;;;5.87;2.50;;;16.80;99.90;;;;;;5108067;28;20857;-57
2022/10/21 08:37:41;;;;;;;3.90;2.27;;;16.80;99.90;;;;;;5106795;28;20555;-57
2022/10/21 08:40:51;;;;;;;3.37;2.10;;;16.80;99.90;;;;;;5106174;28;20207;-57
2022/10/21 08:44:07;;;;;;;4.03;2.50;;;16.80;99.90;;;;;;5105089;28;20705;-57
2022/10/21 08:47:22;;;;;;;2.30;2.00;;;16.90;99.90;;;;;;5104243;28;20210;-58
2022/10/21 08:55:05;;;;;;;5.33;2.07;;;17.00;99.90;;;;;;5107229;28;20181;-59
2022/10/21 08:58:19;;;;;;;4.83;2.20;;;17.10;99.90;;;;;;5095360;28;20214;-58
2022/10/21 09:01:38;;;;;;;5.17;2.17;;;17.10;99.90;;;;;;5109781;28;20220;-58
2022/10/21 09:05:01;;;;;;;1.87;1.53;;;17.20;99.90;;;;;;5108707;28;20251;-59
2022/10/21 09:08:20;;;;;;;1.50;1.40;;;17.30;99.90;;;;;;5108716;28;20191;-58
2022/10/21 09:12:02;;;;;;;2.23;1.70;;;17.50;99.90;;;;;;5116912;27;20269;-57
2022/10/21 09:15:49;;;;;;;4.17;1.27;;;17.60;99.90;;;;;;5114904;27;20195;-58
2022/10/21 09:19:11;;;;;;;2.00;1.00;;;17.80;99.90;;;;;;5099640;28;20198;-58
2022/10/21 09:22:38;;;;;;;4.27;1.20;;;17.90;99.90;;;;;;5101083;28;20572;-57
2022/10/21 09:25:59;;;;;;;1.90;1.20;;;17.90;99.90;;;;;;5090021;28;20200;-58
2022/10/21 09:34:27;;;;;;;2.00;1.13;;;17.90;99.90;;;;;;5101678;28;20289;-57
2022/10/21 09:37:41;;;;;;;3.33;1.03;;;17.90;99.90;;;;;;5109761;28;20228;-58
2022/10/21 09:40:58;;;;;;;3.13;1.03;;;18.10;99.90;;;;;;5109068;28;20278;-58
2022/10/21 09:44:16;;;;;;;1.40;1.23;;;18.20;99.90;;;;;;5115650;28;20239;-57
2022/10/21 09:47:26;;;;;;;0.83;0.83;;;18.40;99.90;;;;;;5112123;28;20207;-57
2022/10/21 09:50:35;;;;;;;1.37;1.00;;;18.30;99.90;;;;;;5106353;28;20193;-58
2022/10/21 09:53:50;;;;;;;0.90;0.90;;;18.50;99.90;;;;;;5106148;28;20214;-58
2022/10/21 09:57:10;;;;;;;1.17;1.00;;;18.50;99.90;;;;;;5118315;27;20218;-58
2022/10/21 10:00:19;;;;;;;1.80;0.97;;;18.50;99.90;;;;;;5101210;27;20242;-57
2022/10/21 10:03:33;;;;;;;1.43;1.00;;;18.50;99.90;;;;;;5112123;28;20190;-57
2022/10/21 10:06:44;;;;;;;1.83;0.90;;;18.50;99.90;;;;;;5103156;27;20397;-58
2022/10/21 10:09:54;;;;;;;1.03;0.90;;;18.60;99.90;;;;;;5114268;28;20194;-58
2022/10/21 10:13:06;;;;;;;1.57;1.10;;;18.80;99.90;;;;;;5106038;28;20214;-58
2022/10/21 10:16:21;;;;;;;0.90;0.90;;;19.00;99.90;;;;;;5108888;28;20191;-58
2022/10/21 10:19:30;;;;;;;1.43;1.03;;;18.90;99.90;;;;;;5106116;28;20199;-58
2022/10/21 10:22:41;;;;;;;1.30;1.20;;;19.00;99.90;;;;;;5096581;28;20328;-58
2022/10/21 10:25:52;;;;;;;3.00;1.10;;;18.80;99.90;;;;;;5109762;28;20707;-58
2022/10/21 10:29:08;;;;;;;1.00;0.90;;;18.80;99.90;;;;;;5093559;28;20214;-59
2022/10/21 10:32:18;;;;;;;1.70;1.17;;;18.90;99.90;;;;;;5108413;28;20190;-58
2022/10/21 10:35:31;;;;;;;1.33;1.10;;;18.80;99.90;;;;;;5109874;28;20194;-58
2022/10/21 10:38:44;;;;;;;2.10;1.40;;;18.80;99.90;;;;;;5102163;28;20223;-59
2022/10/21 10:41:55;;;;;;;1.30;1.20;;;18.70;99.90;;;;;;5112395;28;20210;-58
2022/10/21 10:45:13;;;;;;;2.20;1.10;;;18.80;99.90;;;;;;5100518;28;20230;-57
2022/10/21 10:48:27;;;;;;;4.33;1.30;;;19.00;99.90;;;;;;5099164;28;20682;-57
2022/10/21 10:51:36;;;;;;;3.10;1.53;;;19.00;99.90;;;;;;5112361;28;20698;-58
2022/10/21 10:54:45;;;;;;;2.90;1.20;;;19.10;99.90;;;;;;5104670;28;20202;-57
2022/10/21 10:57:58;;;;;;;2.17;1.40;;;19.10;99.90;;;;;;5114115;28;20572;-58
2022/10/21 11:00:44;;;;;;;1.90;1.50;;;19.00;99.90;;;;;;5111470;28;20721;-58
2022/10/21 11:03:18;;;;;;;1.80;1.50;;;19.00;99.90;;;;;;5075876;28;20239;-58
2022/10/21 11:05:56;;;;;;;1.63;1.50;;;19.00;99.90;;;;;;5113238;28;20205;-57
2022/10/21 11:08:31;;;;;;;5.97;1.50;;;19.00;99.90;;;;;;5114627;28;20266;-58
2022/10/21 11:11:03;;;;;;;1.73;1.60;;;19.00;99.90;;;;;;5096892;28;20227;-59
2022/10/21 11:13:34;;;;;;;4.37;1.50;;;19.10;99.90;;;;;;5090236;28;20699;-58
2022/10/21 11:16:24;;;;;;;2.63;1.60;;;19.00;99.90;;;;;;5075599;28;20194;-58
2022/10/21 11:18:59;;;;;;;3.17;1.40;;;19.20;99.90;;;;;;5088274;28;20223;-58
2022/10/21 11:21:45;;;;;;;4.00;1.60;;;19.60;99.90;;;;;;5100175;28;20282;-58
2022/10/21 11:24:44;;;;;;;1.53;1.43;;;19.90;99.90;;;;;;5077774;28;20203;-59
2022/10/21 11:27:22;;;;;;;3.97;1.50;;;20.30;99.90;;;;;;5062666;28;20224;-58
2022/10/21 11:30:01;;;;;;;6.30;1.80;;;20.50;99.90;;;;;;5110053;28;20659;-58
2022/10/21 11:32:43;;;;;;;2.43;1.40;;;20.70;99.90;;;;;;5104459;28;20278;-58
2022/10/21 11:35:22;;;;;;;2.17;1.33;;;20.60;99.90;;;;;;5096858;28;20219;-57
2022/10/21 11:38:03;;;;;;;1.97;1.40;;;20.60;99.90;;;;;;5101084;28;20273;-58
2022/10/21 11:40:37;;;;;;;1.10;1.10;;;20.60;99.90;;;;;;5095171;28;20282;-58
2022/10/21 11:43:23;;;;;;;6.33;1.43;;;20.70;99.90;;;;;;5102860;28;20227;-59
2022/10/21 11:46:00;;;;;;;4.57;1.23;;;20.80;99.90;;;;;;5074191;28;20303;-58
2022/10/21 11:48:47;;;;;;;3.10;1.50;;;20.90;99.90;;;;;;5080001;28;20282;-58
2022/10/21 11:51:25;;;;;;;3.37;1.50;;;20.90;99.90;;;;;;5094564;28;20294;-58
2022/10/21 11:54:18;;;;;;;1.33;1.30;;;21.00;99.90;;;;;;5094330;28;20299;-58
2022/10/21 11:56:55;;;;;;;1.30;1.20;;;21.00;99.90;;;;;;5086481;28;20203;-58
2022/10/21 11:59:38;;;;;;;4.83;1.30;;;20.90;99.90;;;;;;5086458;28;20215;-58
2022/10/21 12:02:16;;;;;;;1.30;1.20;;;21.00;99.90;;;;;;5107700;28;20315;-58
2022/10/21 12:04:54;;;;;;;1.33;1.17;;;21.10;99.90;;;;;;5085675;28;20657;-59
2022/10/21 12:07:48;;;;;;;1.50;1.40;;;21.00;99.90;;;;;;5114869;28;20202;-57
2022/10/21 12:10:29;;;;;;;2.07;1.23;;;21.00;99.90;;;;;;5094606;28;20680;-58
2022/10/21 12:13:04;;;;;;;1.47;1.30;;;21.10;99.90;;;;;;5095342;28;20704;-59
2022/10/21 12:15:40;;;;;;;2.57;1.20;;;21.30;99.90;;;;;;5113301;27;20571;-57
2022/10/21 12:18:16;;;;;;;1.57;1.30;;;21.40;99.90;;;;;;5111973;27;20285;-58
2022/10/21 12:20:49;;;;;;;3.53;1.60;;;21.60;99.90;;;;;;5108889;27;20199;-57
2022/10/21 12:23:20;;;;;;;1.87;1.70;;;21.50;99.90;;;;;;5114841;28;20217;-57
2022/10/21 12:25:59;;;;;;;3.87;1.20;;;21.60;99.90;;;;;;5113600;28;20744;-57
2022/10/21 12:28:31;;;;;;;3.07;1.50;;;21.70;99.90;;;;;;5116882;27;20227;-57
2022/10/21 12:31:08;;;;;;;5.37;1.60;;;21.70;99.90;;;;;;5114963;27;20771;-58
2022/10/21 12:33:40;;;;;;;1.47;1.37;;;21.50;99.90;;;;;;5126522;27;20240;-57
2022/10/21 12:36:17;;;;;;;1.37;1.30;;;21.60;99.90;;;;;;5118412;27;20297;-58
2022/10/21 12:38:48;;;;;;;1.87;1.40;;;21.70;99.90;;;;;;5105236;27;20661;-58
2022/10/21 12:41:28;;;;;;;3.07;1.60;;;21.70;99.90;;;;;;5094231;28;20283;-58
2022/10/21 12:44:22;;;;;;;1.30;1.30;;;21.70;99.90;;;;;;5109550;28;20294;-58
2022/10/21 12:46:53;;;;;;;1.57;1.10;;;21.70;99.90;;;;;;5099803;27;20231;-57
2022/10/21 12:53:46;;;;;;;1.40;1.30;;;21.70;99.90;;;;;;5107685;28;20277;-57
2022/10/21 12:56:28;;;;;;;2.40;1.30;;;21.90;99.90;;;;;;5113847;28;20218;-57
2022/10/21 12:59:00;;;;;;;3.10;1.20;;;21.90;99.90;;;;;;5097129;28;20222;-58
2022/10/21 13:01:37;;;;;;;3.03;1.30;;;22.10;99.90;;;;;;5106585;28;20239;-58
2022/10/21 13:04:35;;;;;;;3.03;1.47;;;22.30;99.90;;;;;;5109675;28;20207;-57
2022/10/21 13:07:30;;;;;;;1.30;1.20;;;22.30;99.90;;;;;;5113215;28;20572;-57
2022/10/21 13:14:34;;;;;;;2.80;1.23;;;22.00;99.90;;;;;;5108671;28;20209;-58
2022/10/21 13:17:28;;;;;;;1.70;1.30;;;21.90;99.90;;;;;;5113025;28;20219;-56
2022/10/21 13:20:17;;;;;;;1.17;1.03;;;21.90;99.90;;;;;;5099480;28;20666;-57
2022/10/21 13:22:47;;;;;;;1.33;1.10;;;21.70;99.90;;;;;;5106013;28;20239;-56
2022/10/21 13:25:21;;;;;;;1.10;1.03;;;21.70;99.90;;;;;;5093597;28;20244;-57
2022/10/21 13:27:53;;;;;;;1.30;1.13;;;21.80;99.90;;;;;;5093206;28;20253;-57
2022/10/21 13:30:29;;;;;;;1.90;1.20;;;21.80;99.90;;;;;;5133082;27;20210;-57
2022/10/21 13:33:03;;;;;;;2.23;1.13;;;21.70;99.90;;;;;;5118460;28;20820;-56
2022/10/21 13:36:14;;;;;;;2.93;1.00;;;21.80;99.90;;;;;;5112246;28;20214;-57
2022/10/21 13:38:49;;;;;;;1.70;1.00;;;21.90;99.90;;;;;;5106805;28;20578;-57
2022/10/21 13:41:22;;;;;;;1.00;1.00;;;21.80;99.90;;;;;;5107517;27;20337;-58
2022/10/21 13:43:55;;;;;;;1.33;1.00;;;21.70;99.90;;;;;;5123300;28;20297;-57
2022/10/21 13:46:26;;;;;;;0.87;0.70;;;21.70;99.90;;;;;;5096933;28;20630;-57
2022/10/21 13:48:59;;;;;;;2.23;1.00;;;21.70;99.90;;;;;;5097882;28;20277;-57
2022/10/21 13:51:30;;;;;;;2.60;0.90;;;21.80;99.90;;;;;;5113288;28;20199;-57
2022/10/21 13:54:00;;;;;;;2.07;0.93;;;21.90;99.90;;;;;;5113303;28;20252;-57
2022/10/21 13:56:31;;;;;;;1.47;0.90;;;21.90;99.90;;;;;;5112968;28;20301;-57
2022/10/21 13:59:00;;;;;;;2.40;1.00;;;22.00;99.90;;;;;;5109498;28;20293;-57
2022/10/21 14:01:30;;;;;;;0.90;0.90;;;22.00;99.90;;;;;;5092014;28;20231;-57
2022/10/21 14:04:14;;;;;;;1.13;0.80;;;22.10;99.90;;;;;;5094027;28;20196;-57
2022/10/21 14:06:46;;;;;;;1.17;0.90;;;22.30;99.90;;;;;;5096322;28;20218;-57
2022/10/21 14:09:19;;;;;;;2.10;0.90;;;22.40;99.90;;;;;;5092801;28;20595;-57
2022/10/21 14:11:51;;;;;;;0.90;0.90;;;22.20;99.90;;;;;;5093181;28;20217;-57
2022/10/21 14:14:24;;;;;;;0.80;0.80;;;22.20;99.90;;;;;;5110807;28;20658;-57
2022/10/21 14:16:56;;;;;;;2.37;0.90;;;22.10;99.90;;;;;;5110927;28;20280;-57
2022/10/21 14:19:32;;;;;;;2.17;0.90;;;22.00;99.90;;;;;;5107949;28;20211;-58
2022/10/21 14:22:01;;;;;;;0.77;0.77;;;22.10;99.90;;;;;;5105925;28;20199;-57
2022/10/21 14:24:36;;;;;;;1.50;0.70;;;22.20;99.90;;;;;;5113226;28;20193;-58
2022/10/21 14:27:12;;;;;;;3.30;0.73;;;22.10;99.90;;;;;;5103002;28;20225;-57
2022/10/21 14:29:42;;;;;;;2.03;0.90;;;21.90;99.90;;;;;;5097588;28;20396;-58
2022/10/21 14:32:14;;;;;;;3.10;0.90;;;21.90;99.90;;;;;;5106693;28;20219;-57
2022/10/21 14:35:00;;;;;;;1.53;0.80;;;21.90;99.90;;;;;;5102578;28;20195;-57
2022/10/21 14:37:35;;;;;;;2.53;1.00;;;22.00;99.90;;;;;;5099704;28;20549;-57
2022/10/21 14:40:12;;;;;;;1.00;0.90;;;22.00;99.90;;;;;;5117404;27;20239;-57
2022/10/21 14:42:45;;;;;;;0.70;0.70;;;21.90;99.90;;;;;;5113066;27;20221;-57
2022/10/21 14:45:25;;;;;;;0.70;0.67;;;21.90;99.90;;;;;;5113382;28;20217;-57
2022/10/21 14:48:07;;;;;;;1.60;0.80;;;21.80;99.90;;;;;;5112462;28;20227;-57
2022/10/21 14:50:38;;;;;;;2.57;0.80;;;21.80;99.90;;;;;;5106174;27;20228;-57
2022/10/21 14:53:15;;;;;;;0.77;0.77;;;21.80;99.90;;;;;;5111139;27;20206;-57
2022/10/21 14:56:21;;;;;;;1.00;1.00;;;21.80;99.90;;;;;;5106861;27;20604;-57
2022/10/21 14:58:54;;;;;;;0.93;0.93;;;21.70;99.90;;;;;;5113778;28;20237;-58
2022/10/21 15:01:23;;;;;;;0.90;0.90;;;21.50;99.90;;;;;;5105951;28;20626;-57
2022/10/21 15:03:56;;;;;;;0.93;0.70;;;21.50;99.90;;;;;;5114707;28;20195;-57
2022/10/21 15:07:02;;;;;;;1.83;1.03;;;21.40;99.90;;;;;;5124799;27;20278;-57
2022/10/21 15:09:33;;;;;;;2.90;1.23;;;21.20;99.90;;;;;;5106054;28;20195;-57
2022/10/21 15:12:18;;;;;;;2.10;1.00;;;21.10;99.90;;;;;;5115990;28;20247;-58
2022/10/21 15:14:46;;;;;;;0.90;0.90;;;21.00;99.90;;;;;;5116077;28;20257;-58
2022/10/21 15:17:16;;;;;;;0.97;0.93;;;20.90;99.90;;;;;;5114329;28;20254;-58